Time;durP1;ratioP1;P1;durP2;ratioP2;P2;SDS_P1;SDS_P2;PMS_P1;PMS_P2;Temp;Humidity;BMP_temperature;BMP_pressure;BME280_temperature;BME280_humidity;BME280_pressure;Samples;Min_cycle;Max_cycle;Signal;HPM_P1;HPM_P2
2021/06/15 00:01:10;;;;;;;5.68;4.13;;;19.90;80.30;;;;;;5035751;28;20021;-66
2021/06/15 00:03:35;;;;;;;5.43;4.03;;;19.90;80.50;;;;;;5034917;28;20504;-66
2021/06/15 00:06:01;;;;;;;4.55;3.60;;;19.90;80.80;;;;;;5037168;28;20098;-66
2021/06/15 00:08:27;;;;;;;7.43;4.00;;;19.90;80.70;;;;;;5038713;28;20029;-66
2021/06/15 00:10:52;;;;;;;5.70;4.03;;;19.90;80.70;;;;;;5036410;28;20041;-66
2021/06/15 00:13:18;;;;;;;4.97;3.50;;;19.80;80.80;;;;;;5037010;28;20025;-66
2021/06/15 00:15:47;;;;;;;5.32;4.05;;;19.80;80.90;;;;;;5035320;28;20030;-66
2021/06/15 00:18:17;;;;;;;4.20;3.50;;;19.80;81.00;;;;;;5037288;28;20045;-66
2021/06/15 00:20:43;;;;;;;5.38;3.75;;;19.80;81.10;;;;;;5034673;28;20029;-66
2021/06/15 00:23:09;;;;;;;6.50;4.13;;;19.80;81.20;;;;;;5035999;28;20021;-66
2021/06/15 00:25:34;;;;;;;4.93;4.28;;;19.70;81.30;;;;;;5038147;28;20405;-66
2021/06/15 00:28:00;;;;;;;4.80;3.83;;;19.70;81.40;;;;;;5035989;28;20048;-66
2021/06/15 00:30:26;;;;;;;5.22;3.83;;;19.60;81.50;;;;;;5036709;28;20026;-66
2021/06/15 00:32:52;;;;;;;5.13;3.90;;;19.60;81.80;;;;;;5035488;28;20157;-66
2021/06/15 00:35:18;;;;;;;4.57;3.78;;;19.60;81.90;;;;;;5034913;28;20529;-66
2021/06/15 00:37:44;;;;;;;6.35;4.40;;;19.60;82.10;;;;;;5034061;28;20108;-66
2021/06/15 00:40:10;;;;;;;5.35;3.65;;;19.50;82.10;;;;;;5037292;28;20092;-66
2021/06/15 00:42:36;;;;;;;4.55;3.80;;;19.50;82.30;;;;;;5037519;28;20029;-66
2021/06/15 00:45:05;;;;;;;6.13;3.65;;;19.40;82.50;;;;;;5032674;28;20542;-66
2021/06/15 00:47:31;;;;;;;5.10;3.38;;;19.40;82.60;;;;;;5034997;28;20013;-66
2021/06/15 00:49:56;;;;;;;5.03;3.75;;;19.40;82.70;;;;;;5037761;28;20033;-66
2021/06/15 00:52:23;;;;;;;5.78;4.32;;;19.30;82.80;;;;;;5036083;28;20785;-66
2021/06/15 00:54:49;;;;;;;4.82;3.60;;;19.20;83.10;;;;;;5037009;28;20373;-66
2021/06/15 00:57:20;;;;;;;5.45;3.45;;;19.20;83.30;;;;;;5033761;28;20148;-66
2021/06/15 00:59:45;;;;;;;5.15;3.75;;;19.20;83.40;;;;;;5035021;28;20013;-65
2021/06/15 01:02:11;;;;;;;5.18;3.95;;;19.10;83.80;;;;;;5034302;28;20018;-66
2021/06/15 01:04:38;;;;;;;6.18;4.53;;;19.00;84.00;;;;;;5034087;28;20075;-66
2021/06/15 01:07:23;;;;;;;6.38;4.40;;;19.00;84.40;;;;;;5036437;28;20025;-66
2021/06/15 01:10:07;;;;;;;6.97;4.28;;;18.90;84.70;;;;;;5037310;28;20017;-66
2021/06/15 01:12:51;;;;;;;4.75;3.90;;;18.80;85.30;;;;;;5033833;28;20508;-66
2021/06/15 01:15:29;;;;;;;8.18;4.47;;;18.80;85.60;;;;;;5035574;28;20018;-66
2021/06/15 01:18:06;;;;;;;6.45;4.85;;;18.70;85.80;;;;;;5035739;28;20045;-66
2021/06/15 01:20:38;;;;;;;5.65;3.67;;;18.70;86.30;;;;;;5033640;28;20100;-66
2021/06/15 01:23:28;;;;;;;5.18;4.07;;;18.60;86.30;;;;;;5035864;28;20036;-66
2021/06/15 01:26:31;;;;;;;5.60;3.28;;;18.60;86.30;;;;;;5034058;28;20021;-65
2021/06/15 01:28:59;;;;;;;4.57;3.40;;;18.60;86.30;;;;;;5035796;28;20047;-65
2021/06/15 01:31:25;;;;;;;4.80;3.65;;;18.60;86.50;;;;;;5032432;28;20075;-65
2021/06/15 01:34:20;;;;;;;4.15;3.42;;;18.60;86.50;;;;;;5033900;28;20026;-66
2021/06/15 01:37:12;;;;;;;5.63;3.20;;;18.60;86.50;;;;;;5037373;28;20451;-66
2021/06/15 01:39:49;;;;;;;4.68;3.90;;;18.60;86.70;;;;;;5030615;28;20045;-66
2021/06/15 01:42:31;;;;;;;4.88;3.85;;;18.50;87.10;;;;;;5036952;28;20028;-66
2021/06/15 01:45:04;;;;;;;5.00;3.35;;;18.40;87.40;;;;;;5032732;28;20031;-66
2021/06/15 01:47:30;;;;;;;6.80;3.22;;;18.40;87.70;;;;;;5032993;28;20029;-66
2021/06/15 01:50:02;;;;;;;5.80;3.20;;;18.40;87.60;;;;;;5036300;28;20036;-66
2021/06/15 01:52:34;;;;;;;5.78;3.28;;;18.40;87.50;;;;;;5034113;28;20083;-65
2021/06/15 01:55:02;;;;;;;3.75;3.03;;;18.40;87.80;;;;;;5033654;28;20040;-65
2021/06/15 01:57:29;;;;;;;6.43;4.35;;;18.30;87.90;;;;;;5033581;28;20033;-65
2021/06/15 01:59:58;;;;;;;3.78;3.10;;;18.30;88.30;;;;;;5034318;28;20017;-65
2021/06/15 02:02:25;;;;;;;4.90;3.38;;;18.30;88.30;;;;;;5031849;28;20021;-65
2021/06/15 02:04:52;;;;;;;4.63;3.00;;;18.30;88.20;;;;;;5035363;28;20025;-65
2021/06/15 02:07:23;;;;;;;3.88;3.00;;;18.30;88.20;;;;;;5034880;28;20025;-65
2021/06/15 02:09:55;;;;;;;4.00;3.25;;;18.40;88.10;;;;;;5035255;28;20032;-65
2021/06/15 02:12:26;;;;;;;5.72;3.15;;;18.40;88.10;;;;;;5034214;28;20021;-65
2021/06/15 02:14:54;;;;;;;4.55;3.00;;;18.30;88.20;;;;;;5034575;28;20088;-65
2021/06/15 02:17:22;;;;;;;6.03;2.90;;;18.30;88.20;;;;;;5035089;28;20489;-65
2021/06/15 02:19:48;;;;;;;4.10;3.05;;;18.30;88.20;;;;;;5032827;28;20052;-65
2021/06/15 02:22:17;;;;;;;3.08;2.38;;;18.30;88.20;;;;;;5035185;28;20022;-65
2021/06/15 02:24:47;;;;;;;3.75;2.75;;;18.30;88.20;;;;;;5035082;28;20022;-65
2021/06/15 02:27:16;;;;;;;5.57;2.88;;;18.20;88.20;;;;;;5034999;28;20060;-65
2021/06/15 02:29:41;;;;;;;4.68;2.67;;;18.20;88.30;;;;;;5033819;28;20026;-65
2021/06/15 02:32:10;;;;;;;4.50;2.97;;;18.10;88.50;;;;;;5034832;28;20373;-65
2021/06/15 02:34:41;;;;;;;4.57;2.53;;;18.10;88.70;;;;;;5033068;28;20028;-65
2021/06/15 02:37:12;;;;;;;5.18;2.78;;;18.10;88.70;;;;;;5031545;28;20037;-65
2021/06/15 02:39:38;;;;;;;4.60;2.65;;;18.10;88.60;;;;;;5034903;28;20029;-65
2021/06/15 02:42:10;;;;;;;3.22;2.30;;;18.10;88.60;;;;;;5036588;28;20034;-65
2021/06/15 02:44:43;;;;;;;3.97;2.78;;;18.10;88.50;;;;;;5032456;28;20021;-66
2021/06/15 02:47:11;;;;;;;2.15;1.95;;;18.10;88.50;;;;;;5032197;28;20009;-65
2021/06/15 02:49:58;;;;;;;6.22;2.20;;;18.10;88.50;;;;;;5037260;28;20036;-65
2021/06/15 02:52:38;;;;;;;2.90;2.15;;;18.10;88.50;;;;;;5034185;28;20472;-65
2021/06/15 02:55:16;;;;;;;3.83;2.03;;;18.10;88.40;;;;;;5033502;28;20033;-65
2021/06/15 02:57:42;;;;;;;3.78;2.42;;;18.10;88.40;;;;;;5032779;28;20037;-65
2021/06/15 03:00:10;;;;;;;3.20;1.95;;;18.10;88.50;;;;;;5032791;28;20089;-65
2021/06/15 03:02:36;;;;;;;3.38;2.67;;;18.10;88.50;;;;;;5032563;28;20017;-65
2021/06/15 03:05:11;;;;;;;3.33;2.47;;;18.10;88.50;;;;;;5033674;28;20027;-65
2021/06/15 03:07:36;;;;;;;4.13;2.00;;;18.10;88.60;;;;;;5036662;28;20025;-65
2021/06/15 03:10:07;;;;;;;3.20;2.00;;;18.00;88.60;;;;;;5038812;28;20017;-66
2021/06/15 03:12:41;;;;;;;3.30;2.25;;;18.10;88.60;;;;;;5037588;28;20018;-65
2021/06/15 03:15:10;;;;;;;2.47;2.17;;;18.00;88.60;;;;;;5036888;28;20382;-65
2021/06/15 03:17:50;;;;;;;2.20;1.85;;;18.00;88.80;;;;;;5038519;28;20518;-65
2021/06/15 03:20:17;;;;;;;6.07;2.85;;;18.00;88.80;;;;;;5036385;28;20117;-65
2021/06/15 03:22:49;;;;;;;3.33;2.70;;;17.90;89.20;;;;;;5034445;28;20029;-65
2021/06/15 03:25:20;;;;;;;4.35;2.47;;;17.90;89.20;;;;;;5040280;28;20390;-65
2021/06/15 03:27:54;;;;;;;3.80;2.95;;;17.90;89.40;;;;;;5037321;28;20021;-65
2021/06/15 03:30:21;;;;;;;4.80;2.75;;;17.80;89.60;;;;;;5038409;28;20017;-65
2021/06/15 03:32:52;;;;;;;5.78;3.08;;;17.80;89.80;;;;;;5050543;28;20432;-65
2021/06/15 03:35:20;;;;;;;2.95;2.00;;;17.70;89.80;;;;;;5036756;28;20390;-65
2021/06/15 03:37:52;;;;;;;4.00;2.33;;;17.70;89.80;;;;;;5035472;28;20020;-65
2021/06/15 03:40:20;;;;;;;3.47;1.98;;;17.70;89.80;;;;;;5036921;28;20100;-65
2021/06/15 03:42:46;;;;;;;2.55;1.98;;;17.70;89.80;;;;;;5037650;28;20017;-65
2021/06/15 03:45:13;;;;;;;2.75;1.70;;;17.70;89.60;;;;;;5034662;28;20036;-65
2021/06/15 03:47:41;;;;;;;2.38;1.73;;;17.80;89.60;;;;;;5035230;28;20041;-65
2021/06/15 03:50:08;;;;;;;2.72;1.88;;;17.80;89.50;;;;;;5037676;28;20377;-65
2021/06/15 03:52:38;;;;;;;2.80;1.58;;;17.80;89.50;;;;;;5037874;28;20485;-65
2021/06/15 03:55:06;;;;;;;3.85;2.13;;;17.90;89.50;;;;;;5037704;28;20052;-65
2021/06/15 03:57:33;;;;;;;3.77;1.87;;;17.90;89.40;;;;;;5036228;28;20127;-65
2021/06/15 04:00:03;;;;;;;3.70;1.65;;;17.80;89.40;;;;;;5035784;28;20021;-65
2021/06/15 04:02:31;;;;;;;;;;;17.90;89.30;;;;;;5034614;28;20044;-65
2021/06/15 04:04:58;;;;;;;2.40;1.42;;;17.80;89.20;;;;;;5035378;28;19955;-65
2021/06/15 04:07:24;;;;;;;2.15;1.50;;;17.80;89.50;;;;;;5037339;28;20022;-65
2021/06/15 04:09:51;;;;;;;2.40;1.63;;;17.90;89.30;;;;;;5037793;28;20528;-65
2021/06/15 04:12:19;;;;;;;2.83;1.70;;;17.80;89.20;;;;;;5036510;28;20017;-65
2021/06/15 04:14:47;;;;;;;2.30;1.83;;;17.80;89.20;;;;;;5037148;28;20087;-65
2021/06/15 04:17:31;;;;;;;3.72;1.83;;;17.80;89.30;;;;;;5037722;28;20033;-65
2021/06/15 04:19:58;;;;;;;3.05;2.03;;;17.90;89.20;;;;;;5034671;28;20104;-65
2021/06/15 04:22:31;;;;;;;2.95;1.85;;;17.80;89.40;;;;;;5034561;28;20470;-65
2021/06/15 04:24:58;;;;;;;2.22;1.70;;;17.90;89.30;;;;;;5038281;28;20018;-65
2021/06/15 04:27:26;;;;;;;2.30;1.90;;;17.90;89.30;;;;;;5037290;28;20030;-65
2021/06/15 04:29:56;;;;;;;2.58;1.70;;;17.90;89.20;;;;;;5036285;28;20531;-65
2021/06/15 04:32:45;;;;;;;2.50;1.75;;;17.90;89.10;;;;;;5034257;28;20458;-65
2021/06/15 04:35:12;;;;;;;2.93;1.60;;;18.00;89.00;;;;;;5035939;28;20488;-65
2021/06/15 04:37:38;;;;;;;4.55;2.05;;;18.00;89.10;;;;;;5034514;28;20268;-65
2021/06/15 04:40:17;;;;;;;3.08;1.98;;;18.00;89.00;;;;;;5034407;28;20025;-65
2021/06/15 04:42:57;;;;;;;3.17;1.75;;;18.10;88.90;;;;;;5036438;28;20100;-65
2021/06/15 04:45:29;;;;;;;;;;;18.10;88.80;;;;;;5035175;28;20071;-65
2021/06/15 04:48:03;;;;;;;3.58;1.48;;;18.00;88.90;;;;;;5034435;28;19940;-65
2021/06/15 04:50:30;;;;;;;2.50;1.55;;;18.00;89.00;;;;;;5036727;28;20107;-65
2021/06/15 04:52:57;;;;;;;4.18;2.03;;;18.00;88.90;;;;;;5038525;28;20072;-65
2021/06/15 04:55:26;;;;;;;2.00;1.50;;;18.00;88.80;;;;;;5034576;28;20033;-65
2021/06/15 04:57:54;;;;;;;3.20;1.88;;;18.10;88.80;;;;;;5034419;28;20100;-65
2021/06/15 05:00:21;;;;;;;2.70;1.60;;;18.00;88.60;;;;;;5036302;28;20032;-65
2021/06/15 05:02:48;;;;;;;3.03;1.40;;;18.10;88.60;;;;;;5033675;28;20022;-66
2021/06/15 05:05:15;;;;;;;4.93;1.45;;;18.10;88.40;;;;;;5033989;28;20025;-66
2021/06/15 05:07:40;;;;;;;2.78;1.52;;;18.10;88.20;;;;;;5041808;28;20100;-66
2021/06/15 05:10:08;;;;;;;4.47;1.90;;;18.20;88.10;;;;;;5053985;28;20480;-65
2021/06/15 05:12:42;;;;;;;3.67;1.90;;;18.20;88.00;;;;;;5053673;28;20025;-66
2021/06/15 05:15:10;;;;;;;3.20;1.80;;;18.20;88.00;;;;;;5054075;28;20476;-66
2021/06/15 05:17:36;;;;;;;3.33;2.03;;;18.20;88.10;;;;;;5053911;28;20044;-66
2021/06/15 05:20:06;;;;;;;4.22;1.75;;;18.20;88.10;;;;;;5052735;28;20029;-66
2021/06/15 05:22:38;;;;;;;3.80;1.60;;;18.20;88.00;;;;;;5054010;28;20032;-65
2021/06/15 05:25:04;;;;;;;3.53;1.80;;;18.20;88.00;;;;;;5053080;28;20036;-66
2021/06/15 05:27:34;;;;;;;2.65;1.48;;;18.30;87.90;;;;;;5053011;28;20021;-66
2021/06/15 05:30:01;;;;;;;2.65;1.50;;;18.20;87.70;;;;;;5052964;28;20044;-66
2021/06/15 05:32:28;;;;;;;4.38;1.75;;;18.20;87.50;;;;;;5052978;28;20362;-66
2021/06/15 05:34:53;;;;;;;4.25;1.63;;;18.30;87.30;;;;;;5052784;28;20024;-66
2021/06/15 05:37:19;;;;;;;2.03;1.15;;;18.30;87.10;;;;;;5053353;28;20041;-66
2021/06/15 05:39:45;;;;;;;2.08;1.08;;;18.30;86.80;;;;;;5052511;28;20168;-66
2021/06/15 05:42:12;;;;;;;2.67;1.00;;;18.40;86.60;;;;;;5053823;28;20021;-66
2021/06/15 05:44:38;;;;;;;1.73;0.82;;;18.40;86.30;;;;;;5058809;28;20029;-66
2021/06/15 05:47:04;;;;;;;1.42;0.77;;;18.40;85.80;;;;;;5060381;28;20025;-66
2021/06/15 05:49:31;;;;;;;1.52;0.90;;;18.50;85.40;;;;;;5053268;28;20037;-66
2021/06/15 05:52:03;;;;;;;1.55;0.75;;;18.50;84.90;;;;;;5053542;28;20413;-66
2021/06/15 05:54:29;;;;;;;1.88;0.60;;;18.50;84.50;;;;;;5051990;28;20078;-66
2021/06/15 05:56:56;;;;;;;2.72;0.90;;;18.50;84.20;;;;;;5033395;28;20469;-66
2021/06/15 05:59:22;;;;;;;4.18;0.75;;;18.50;83.40;;;;;;5032888;28;20032;-66
2021/06/15 06:01:48;;;;;;;0.95;0.40;;;18.60;83.20;;;;;;5033288;28;20543;-66
2021/06/15 06:04:15;;;;;;;2.72;1.52;;;18.60;82.90;;;;;;5032029;28;20029;-66
2021/06/15 06:09:25;;;;;;;2.38;0.70;;;18.70;81.40;;;;;;5052937;28;20115;-67
2021/06/15 06:11:51;;;;;;;2.20;0.70;;;18.80;81.10;;;;;;5051428;28;20036;-67
2021/06/15 06:14:16;;;;;;;0.95;0.40;;;18.90;80.40;;;;;;5053136;28;20036;-66
2021/06/15 06:16:42;;;;;;;1.20;0.50;;;18.90;80.10;;;;;;5051491;28;20162;-66
2021/06/15 06:19:13;;;;;;;1.27;0.50;;;18.90;79.30;;;;;;5052802;28;20025;-67
2021/06/15 06:21:39;;;;;;;1.60;0.40;;;19.00;79.00;;;;;;5052708;28;20615;-66
2021/06/15 06:24:06;;;;;;;1.52;0.38;;;19.10;78.70;;;;;;5052519;28;20032;-67
2021/06/15 06:26:33;;;;;;;2.65;0.50;;;19.10;78.60;;;;;;5052859;28;20048;-66
2021/06/15 06:28:59;;;;;;;1.75;0.40;;;19.10;78.40;;;;;;5051238;28;20021;-66
2021/06/15 06:31:24;;;;;;;0.70;0.30;;;19.10;78.20;;;;;;5036683;28;20037;-66
2021/06/15 06:33:50;;;;;;;2.75;0.45;;;19.10;78.00;;;;;;5040215;28;20095;-66
2021/06/15 06:36:16;;;;;;;1.13;0.40;;;19.20;77.60;;;;;;5051398;28;20393;-66
2021/06/15 06:38:42;;;;;;;0.73;0.30;;;19.30;77.50;;;;;;5051280;28;20032;-67
2021/06/15 06:41:08;;;;;;;0.95;0.38;;;19.40;77.10;;;;;;5052311;28;20021;-67
2021/06/15 06:43:36;;;;;;;1.48;0.40;;;19.40;76.60;;;;;;5052544;28;20037;-66
2021/06/15 06:46:01;;;;;;;2.33;0.40;;;19.40;76.30;;;;;;5036663;28;20111;-66
2021/06/15 06:48:27;;;;;;;1.23;0.70;;;19.40;76.30;;;;;;5027487;28;20102;-66
2021/06/15 06:50:53;;;;;;;1.50;0.30;;;19.50;76.20;;;;;;5038447;28;20040;-67
2021/06/15 06:53:18;;;;;;;2.05;0.40;;;19.50;75.90;;;;;;5052725;28;20025;-67
2021/06/15 06:55:44;;;;;;;2.10;0.60;;;19.60;75.60;;;;;;5052424;28;20103;-67
2021/06/15 06:58:10;;;;;;;1.33;0.43;;;19.70;75.40;;;;;;5051426;28;20551;-67
2021/06/15 07:00:36;;;;;;;1.00;0.40;;;19.70;74.90;;;;;;5052415;28;20023;-67
2021/06/15 07:03:02;;;;;;;1.35;0.35;;;19.70;74.30;;;;;;5051362;28;20376;-67
2021/06/15 07:05:27;;;;;;;0.90;0.40;;;19.80;74.10;;;;;;5051053;28;20029;-67
2021/06/15 07:07:53;;;;;;;1.38;0.32;;;19.80;73.90;;;;;;5052569;28;20031;-66
2021/06/15 07:10:20;;;;;;;2.60;0.40;;;19.70;73.60;;;;;;5052564;28;20504;-67
2021/06/15 07:12:46;;;;;;;0.93;0.40;;;19.80;73.40;;;;;;5052593;28;20104;-67
2021/06/15 07:15:12;;;;;;;1.95;0.55;;;19.70;73.30;;;;;;5052487;28;20450;-67
2021/06/15 07:17:38;;;;;;;2.05;0.40;;;19.70;73.20;;;;;;5052237;28;20119;-67
2021/06/15 07:20:05;;;;;;;0.98;0.22;;;19.80;73.30;;;;;;5051134;28;20029;-67
2021/06/15 07:22:31;;;;;;;1.15;0.40;;;19.80;73.30;;;;;;5051551;28;20048;-67
2021/06/15 07:24:57;;;;;;;1.95;0.47;;;19.90;73.20;;;;;;5052425;28;20462;-67
2021/06/15 07:27:23;;;;;;;1.48;0.40;;;20.00;73.00;;;;;;5052450;28;20068;-67
2021/06/15 07:29:49;;;;;;;2.22;0.65;;;20.10;72.60;;;;;;5052191;28;20112;-67
2021/06/15 07:32:14;;;;;;;2.15;0.50;;;20.20;72.20;;;;;;5052405;28;20121;-67
2021/06/15 07:34:40;;;;;;;1.77;0.50;;;20.20;71.80;;;;;;5052352;28;20028;-67
2021/06/15 07:37:06;;;;;;;1.52;0.32;;;20.20;72.40;;;;;;5050910;28;20032;-67
2021/06/15 07:39:31;;;;;;;1.33;0.40;;;20.20;71.60;;;;;;5052239;28;20110;-67
2021/06/15 07:41:57;;;;;;;2.58;0.40;;;20.20;71.40;;;;;;5052771;28;20369;-67
2021/06/15 07:44:23;;;;;;;1.25;0.40;;;20.30;71.60;;;;;;5050997;28;20028;-67
2021/06/15 07:46:48;;;;;;;1.95;0.40;;;20.40;71.00;;;;;;5052258;28;20385;-67
2021/06/15 07:49:14;;;;;;;1.83;0.43;;;20.40;70.50;;;;;;5052288;28;20504;-67
2021/06/15 07:51:39;;;;;;;4.25;0.50;;;20.50;69.70;;;;;;5052038;28;20029;-67
2021/06/15 07:54:05;;;;;;;2.25;0.40;;;20.60;69.40;;;;;;5053656;28;20100;-67
2021/06/15 07:56:31;;;;;;;1.75;0.40;;;20.70;69.00;;;;;;5055632;28;20100;-67
2021/06/15 07:58:56;;;;;;;1.65;0.47;;;20.70;68.60;;;;;;5055723;28;20037;-67
2021/06/15 08:01:22;;;;;;;1.00;0.30;;;20.90;68.50;;;;;;5055602;28;20051;-67
2021/06/15 08:03:48;;;;;;;2.33;0.50;;;21.00;68.20;;;;;;5055623;28;20067;-67
2021/06/15 08:06:13;;;;;;;1.05;0.47;;;21.20;68.00;;;;;;5055603;28;20025;-67
2021/06/15 08:08:39;;;;;;;2.28;0.47;;;21.30;67.30;;;;;;5054155;28;20487;-67
2021/06/15 08:11:04;;;;;;;2.38;0.40;;;21.20;66.70;;;;;;5054960;28;20123;-67
2021/06/15 08:13:31;;;;;;;1.33;0.70;;;21.30;66.90;;;;;;5035650;28;20022;-67
2021/06/15 08:15:57;;;;;;;3.08;0.70;;;21.40;66.80;;;;;;5036585;28;20104;-67
2021/06/15 08:18:24;;;;;;;1.85;0.30;;;21.50;66.60;;;;;;5037735;28;20099;-67
2021/06/15 08:20:52;;;;;;;1.58;0.60;;;21.50;66.30;;;;;;5033254;28;20485;-67
2021/06/15 08:23:18;;;;;;;1.50;0.30;;;21.60;66.30;;;;;;5032936;28;20025;-67
2021/06/15 08:25:46;;;;;;;1.17;0.40;;;21.70;66.40;;;;;;5039068;28;20028;-67
2021/06/15 08:28:13;;;;;;;1.30;0.30;;;21.90;66.30;;;;;;5034443;28;20416;-67
2021/06/15 08:30:40;;;;;;;1.48;0.50;;;22.00;66.00;;;;;;5036738;28;20346;-67
2021/06/15 08:33:05;;;;;;;1.85;0.50;;;21.90;65.50;;;;;;5066370;28;20036;-67
2021/06/15 08:35:31;;;;;;;2.22;0.38;;;22.00;65.30;;;;;;5037938;28;20029;-67
2021/06/15 08:37:56;;;;;;;0.80;0.38;;;22.10;65.40;;;;;;5036594;28;20403;-67
2021/06/15 08:40:22;;;;;;;1.13;0.45;;;22.20;65.40;;;;;;5036732;28;20140;-67
2021/06/15 08:42:48;;;;;;;2.25;0.50;;;22.40;65.30;;;;;;5037973;28;20358;-67
2021/06/15 08:45:16;;;;;;;1.40;0.50;;;22.50;65.10;;;;;;5034486;28;20523;-67
2021/06/15 08:47:46;;;;;;;2.05;0.40;;;22.60;64.40;;;;;;5034201;28;20060;-67
2021/06/15 08:50:15;;;;;;;3.28;0.50;;;22.70;64.30;;;;;;5034440;28;20021;-67
2021/06/15 08:52:42;;;;;;;2.10;0.50;;;22.70;64.10;;;;;;5034057;28;20025;-67
2021/06/15 08:55:08;;;;;;;1.10;0.30;;;22.70;64.90;;;;;;5040286;28;20481;-67
2021/06/15 08:57:36;;;;;;;1.55;0.47;;;22.90;64.30;;;;;;5036157;28;20033;-67
2021/06/15 09:00:06;;;;;;;1.83;0.32;;;23.00;64.00;;;;;;5036727;28;20018;-67
2021/06/15 09:02:43;;;;;;;3.10;0.40;;;23.00;64.60;;;;;;5033780;28;20052;-67
2021/06/15 09:05:10;;;;;;;1.27;0.50;;;23.20;64.00;;;;;;5048714;28;20022;-67
2021/06/15 09:08:08;;;;;;;0.95;0.30;;;23.30;63.90;;;;;;5036443;28;20045;-68
2021/06/15 09:10:45;;;;;;;2.47;0.52;;;23.50;63.50;;;;;;5036091;28;20029;-67
2021/06/15 09:13:40;;;;;;;2.60;0.80;;;23.40;63.20;;;;;;5037711;28;20046;-67
2021/06/15 09:16:26;;;;;;;3.70;0.57;;;23.50;63.20;;;;;;5037628;28;20428;-67
2021/06/15 09:18:54;;;;;;;1.02;0.40;;;23.60;62.30;;;;;;5029117;28;20037;-67
2021/06/15 09:21:28;;;;;;;2.33;0.50;;;23.60;62.30;;;;;;5035640;28;20021;-67
2021/06/15 09:24:09;;;;;;;2.42;0.73;;;23.70;62.10;;;;;;5037569;28;20025;-67
2021/06/15 09:27:07;;;;;;;1.88;0.60;;;23.70;61.60;;;;;;5034985;28;20080;-67
2021/06/15 09:29:42;;;;;;;0.85;0.35;;;23.90;61.50;;;;;;5034397;28;20061;-67
2021/06/15 09:32:11;;;;;;;2.10;0.50;;;23.90;61.40;;;;;;5034591;28;20501;-67
2021/06/15 09:34:44;;;;;;;2.53;0.65;;;24.00;61.20;;;;;;5043398;28;20040;-67
2021/06/15 09:37:09;;;;;;;2.75;0.50;;;24.00;60.90;;;;;;5046130;28;20025;-67
2021/06/15 09:39:36;;;;;;;3.20;0.43;;;24.00;61.40;;;;;;5044728;28;20040;-67
2021/06/15 09:42:02;;;;;;;2.88;0.30;;;24.10;60.80;;;;;;5040814;28;20031;-67
2021/06/15 09:44:30;;;;;;;1.50;0.40;;;24.30;60.30;;;;;;5033946;28;20096;-67
2021/06/15 09:47:01;;;;;;;1.15;0.40;;;24.50;59.90;;;;;;5033996;28;20033;-68
2021/06/15 09:49:37;;;;;;;1.10;0.40;;;24.60;59.30;;;;;;5038109;28;20402;-68
2021/06/15 09:52:15;;;;;;;1.45;0.40;;;24.70;59.00;;;;;;5040545;28;20029;-67
2021/06/15 09:54:43;;;;;;;1.08;0.30;;;24.80;58.20;;;;;;5034035;28;20022;-67
2021/06/15 09:57:10;;;;;;;1.13;0.30;;;24.80;58.20;;;;;;5034101;28;20039;-68
2021/06/15 09:59:36;;;;;;;1.55;0.30;;;24.90;58.00;;;;;;5034718;28;20071;-68
2021/06/15 10:02:02;;;;;;;1.48;0.40;;;25.10;57.80;;;;;;5033950;28;20018;-68
2021/06/15 10:04:28;;;;;;;1.23;0.40;;;25.00;56.70;;;;;;5040050;28;20033;-67
2021/06/15 10:06:56;;;;;;;1.20;0.30;;;25.00;57.00;;;;;;5033648;28;20581;-68
2021/06/15 10:09:33;;;;;;;2.58;0.40;;;25.00;56.80;;;;;;5034637;28;20041;-68
2021/06/15 10:12:02;;;;;;;0.60;0.35;;;25.20;56.30;;;;;;5042157;28;20377;-68
2021/06/15 10:14:28;;;;;;;2.33;0.40;;;25.40;56.00;;;;;;5038270;28;20477;-68
2021/06/15 10:16:55;;;;;;;0.82;0.30;;;25.50;55.60;;;;;;5033941;28;20417;-67
2021/06/15 10:19:21;;;;;;;2.50;0.40;;;25.70;54.90;;;;;;5033346;28;20036;-67
2021/06/15 10:21:47;;;;;;;0.93;0.20;;;25.90;54.60;;;;;;5048894;28;20025;-68
2021/06/15 10:24:14;;;;;;;1.08;0.30;;;26.20;54.40;;;;;;5052788;28;20106;-68
2021/06/15 10:26:40;;;;;;;2.22;0.45;;;26.30;53.90;;;;;;5052316;28;20021;-68
2021/06/15 10:29:11;;;;;;;0.75;0.65;;;26.40;52.60;;;;;;5052513;28;20116;-68
2021/06/15 10:31:39;;;;;;;0.90;0.40;;;26.60;52.70;;;;;;5035557;28;20053;-68
2021/06/15 10:34:04;;;;;;;1.67;0.50;;;26.70;52.20;;;;;;5036196;28;20030;-68
2021/06/15 10:36:46;;;;;;;2.10;0.85;;;26.80;52.20;;;;;;5033854;28;20515;-68
2021/06/15 10:39:17;;;;;;;3.08;0.40;;;26.80;52.10;;;;;;5034627;28;20020;-68
2021/06/15 10:41:43;;;;;;;2.47;0.40;;;26.90;52.30;;;;;;5032593;28;20073;-68
2021/06/15 10:44:12;;;;;;;1.85;0.55;;;26.90;52.20;;;;;;5033179;28;20018;-68
2021/06/15 10:46:40;;;;;;;3.05;0.50;;;26.80;52.30;;;;;;5032094;28;20075;-68
2021/06/15 10:49:12;;;;;;;2.63;0.70;;;26.80;52.60;;;;;;5036531;28;20033;-69
2021/06/15 10:51:57;;;;;;;2.92;0.70;;;26.60;52.20;;;;;;5032714;28;20057;-70
2021/06/15 10:54:31;;;;;;;4.90;0.57;;;26.40;52.00;;;;;;5035201;28;20021;-68
2021/06/15 10:57:25;;;;;;;5.03;0.60;;;26.40;52.50;;;;;;5032897;28;20039;-68
2021/06/15 11:00:12;;;;;;;0.98;0.50;;;26.30;52.70;;;;;;5032288;28;20449;-68
2021/06/15 11:02:38;;;;;;;3.13;0.52;;;26.40;52.90;;;;;;5040849;28;20137;-69
2021/06/15 11:05:39;;;;;;;2.55;0.50;;;26.30;52.90;;;;;;5041910;28;20021;-69
2021/06/15 11:08:23;;;;;;;2.90;0.45;;;26.40;52.70;;;;;;5042653;28;20025;-68
2021/06/15 11:10:59;;;;;;;1.05;0.40;;;26.50;52.90;;;;;;5038128;28;20473;-68
2021/06/15 11:13:45;;;;;;;1.80;0.40;;;26.60;53.00;;;;;;5043159;28;20064;-68
2021/06/15 11:16:40;;;;;;;1.38;0.50;;;26.90;52.80;;;;;;5041551;28;20527;-68
2021/06/15 11:19:09;;;;;;;1.98;0.50;;;27.10;52.40;;;;;;5035583;28;20041;-69
2021/06/15 11:21:44;;;;;;;1.88;0.50;;;27.40;52.20;;;;;;5045511;28;20086;-69
2021/06/15 11:24:30;;;;;;;1.45;0.40;;;27.60;51.60;;;;;;5051941;28;20018;-69
2021/06/15 11:27:23;;;;;;;3.75;0.80;;;27.90;51.40;;;;;;5050362;28;20397;-68
2021/06/15 11:29:51;;;;;;;1.05;0.40;;;28.10;51.60;;;;;;5051449;28;20554;-69
2021/06/15 11:32:22;;;;;;;2.10;0.50;;;28.30;51.30;;;;;;5055234;28;20106;-68
2021/06/15 11:34:58;;;;;;;1.38;0.52;;;28.50;51.20;;;;;;5054395;28;20502;-68
2021/06/15 11:37:43;;;;;;;3.42;0.57;;;28.70;50.70;;;;;;5055726;28;20025;-68
2021/06/15 11:40:15;;;;;;;3.28;0.60;;;28.80;50.10;;;;;;5054165;28;20025;-68
2021/06/15 11:42:52;;;;;;;1.05;0.50;;;28.80;49.90;;;;;;5042055;28;20021;-68
2021/06/15 11:45:20;;;;;;;2.42;0.70;;;28.90;49.70;;;;;;5055504;28;20025;-69
2021/06/15 11:47:51;;;;;;;2.83;0.70;;;29.00;49.30;;;;;;5055296;28;20021;-68
2021/06/15 11:50:26;;;;;;;3.65;0.63;;;29.00;49.40;;;;;;5055212;28;20040;-68
2021/06/15 11:52:58;;;;;;;1.98;0.50;;;29.00;48.90;;;;;;5042037;28;20032;-69
2021/06/15 11:55:40;;;;;;;2.00;0.50;;;28.90;49.30;;;;;;5055618;28;20397;-69
2021/06/15 11:58:13;;;;;;;4.30;0.77;;;29.00;49.40;;;;;;5055303;28;20048;-69
2021/06/15 12:00:43;;;;;;;2.10;0.60;;;28.90;49.00;;;;;;5055141;28;20108;-69
2021/06/15 12:03:18;;;;;;;1.95;0.47;;;28.90;49.00;;;;;;5048916;28;20082;-70
2021/06/15 12:05:45;;;;;;;3.60;1.15;;;29.00;48.90;;;;;;5047777;28;20025;-69
2021/06/15 12:08:10;;;;;;;3.83;0.60;;;29.20;49.00;;;;;;5036319;28;20034;-69
2021/06/15 12:10:37;;;;;;;4.43;1.00;;;29.30;48.90;;;;;;5034959;28;20036;-70
2021/06/15 12:13:08;;;;;;;3.45;0.73;;;29.30;47.40;;;;;;5034268;28;20386;-69
2021/06/15 12:15:34;;;;;;;3.00;0.68;;;29.20;47.40;;;;;;5036557;28;20072;-70
2021/06/15 12:18:00;;;;;;;3.17;0.70;;;29.20;47.70;;;;;;5038690;28;20068;-69
2021/06/15 12:20:29;;;;;;;3.70;1.02;;;29.20;48.00;;;;;;5034593;28;20049;-70
2021/06/15 12:22:55;;;;;;;2.55;0.68;;;29.30;47.00;;;;;;5034413;28;20100;-70
2021/06/15 12:25:30;;;;;;;2.95;0.80;;;29.40;47.30;;;;;;5039234;28;20104;-69
2021/06/15 12:28:13;;;;;;;2.00;0.60;;;29.60;47.30;;;;;;5036306;28;20018;-70
2021/06/15 12:30:44;;;;;;;4.63;0.88;;;29.80;47.00;;;;;;5036210;28;20029;-69
2021/06/15 12:33:11;;;;;;;2.08;0.88;;;29.90;46.50;;;;;;5034188;28;20100;-70
2021/06/15 12:35:38;;;;;;;2.65;0.70;;;30.00;46.30;;;;;;5038864;28;20025;-69
2021/06/15 12:38:14;;;;;;;1.33;0.50;;;30.00;46.40;;;;;;5036300;28;20018;-69
2021/06/15 12:40:42;;;;;;;3.72;0.77;;;30.10;46.30;;;;;;5036295;28;20013;-70
2021/06/15 12:43:09;;;;;;;2.30;0.70;;;30.10;45.80;;;;;;5035058;28;20022;-69
2021/06/15 12:45:37;;;;;;;3.22;0.93;;;30.20;45.60;;;;;;5035233;28;20549;-69
2021/06/15 12:48:22;;;;;;;2.15;0.60;;;30.30;45.40;;;;;;5034283;28;20121;-69
2021/06/15 12:51:06;;;;;;;1.98;0.50;;;30.50;45.40;;;;;;5036432;28;20017;-69
2021/06/15 12:53:35;;;;;;;4.10;0.93;;;30.80;45.00;;;;;;5065900;28;20018;-69
2021/06/15 12:56:12;;;;;;;2.42;0.80;;;30.80;44.30;;;;;;5037478;28;20013;-71
2021/06/15 12:58:38;;;;;;;1.85;0.93;;;30.90;44.20;;;;;;5045288;28;20048;-70
2021/06/15 13:01:32;;;;;;;1.98;0.60;;;31.10;44.20;;;;;;5053393;28;20396;-71
2021/06/15 13:03:58;;;;;;;3.35;0.75;;;31.20;44.20;;;;;;5037736;28;20436;-71
2021/06/15 13:06:27;;;;;;;3.05;0.75;;;31.20;44.20;;;;;;5043968;28;20021;-71